Estación de San Julian
Ultimos registro cada 15 minutos 27
| N° | Estación | Fecha / Hora | Temperatura | Humedad | Lluvia | Velocidad | Dirección | Radiación | Presion |
| 27 | San Julian | 06-05-2026 06:30 | 10,3 | 100 | 0 | 0 | 28 | 0,6 | 987,5 |
| 26 | San Julian | 06-05-2026 06:15 | 10,3 | 100 | 0 | 0 | 28 | 0,6 | 987,4 |
| 25 | San Julian | 06-05-2026 06:00 | 10,4 | 100 | 0 | 0 | 28 | 0,6 | 987,2 |
| 24 | San Julian | 06-05-2026 05:45 | 10,3 | 99,9 | 0 | 0 | 10 | 0,6 | 987 |
| 23 | San Julian | 06-05-2026 05:30 | 10,6 | 100 | 0 | 0 | 20 | 0,6 | 986,3 |
| 22 | San Julian | 06-05-2026 05:15 | 10,5 | 99,8 | 0 | 0 | 22 | 0,6 | 986,3 |
| 21 | San Julian | 06-05-2026 05:00 | 10,8 | 99,8 | 0 | 0 | 320 | 0,6 | 986,2 |
| 20 | San Julian | 06-05-2026 04:45 | 10,8 | 99,6 | 0 | 0 | 313 | 0,6 | 986,6 |
| 19 | San Julian | 06-05-2026 04:30 | 10,8 | 99,5 | 0 | 0 | 310 | 0,6 | 986,7 |
| 18 | San Julian | 06-05-2026 04:15 | 10,9 | 99,5 | 0 | 0 | 314 | 0,6 | 986,4 |
| 17 | San Julian | 06-05-2026 04:00 | 11 | 99,4 | 0 | 0 | 264 | 0,6 | 986,2 |
| 16 | San Julian | 06-05-2026 03:45 | 11,2 | 99,4 | 0 | 0 | 198 | 0,6 | 986 |
| 15 | San Julian | 06-05-2026 03:30 | 11,1 | 99,3 | 0 | 0 | 202 | 0,6 | 986,2 |
| 14 | San Julian | 06-05-2026 03:15 | 11,2 | 99,3 | 0 | 0 | 209 | 0,6 | 986 |
| 13 | San Julian | 06-05-2026 03:00 | 11,2 | 99,2 | 0 | 0 | 209 | 0,6 | 986,1 |
| 12 | San Julian | 06-05-2026 02:45 | 11,4 | 99,2 | 0 | 0 | 209 | 0,6 | 986,3 |
| 11 | San Julian | 06-05-2026 02:30 | 11,3 | 99,1 | 0 | 0 | 209 | 0,6 | 986,1 |
| 10 | San Julian | 06-05-2026 02:15 | 11,2 | 99,1 | 0 | 0 | 208 | 0,6 | 986,2 |
| 9 | San Julian | 06-05-2026 02:00 | 11,4 | 98,9 | 0 | 0 | 202 | 0,6 | 985,8 |
| 8 | San Julian | 06-05-2026 01:45 | 11,3 | 98,9 | 0 | 0 | 202 | 0,6 | 985,8 |
| 7 | San Julian | 06-05-2026 01:30 | 11,4 | 98,8 | 0 | 0 | 202 | 0,6 | 985,8 |
| 6 | San Julian | 06-05-2026 01:15 | 11,4 | 98,7 | 0 | 0 | 202 | 0,6 | 985,6 |
| 5 | San Julian | 06-05-2026 01:00 | 11,5 | 98,6 | 0 | 0 | 202 | 0,6 | 985,7 |
| 4 | San Julian | 06-05-2026 00:45 | 11,4 | 98,5 | 0 | 0 | 202 | 0,6 | 985,7 |
| 3 | San Julian | 06-05-2026 00:30 | 11,5 | 98,4 | 0 | 0 | 202 | 0,6 | 985,9 |
| 2 | San Julian | 06-05-2026 00:15 | 11,5 | 98,2 | 0 | 0 | 202 | 0,6 | 985,8 |
| 1 | San Julian | 06-05-2026 00:00 | 11,4 | 98 | 0 | 0 | 202 | 0,6 | 986 |